sensor_id;sensor_type;location;lat;lon;timestamp;pressure;altitude;pressure_sealevel;temperature;humidity
64158;BME280;50449;51.528;5.076;2024-02-04T00:01:35;102339.78;;;12.28;70.81
64158;BME280;50449;51.528;5.076;2024-02-04T00:04:00;102336.25;;;12.27;71.15
64158;BME280;50449;51.528;5.076;2024-02-04T00:06:26;102335.41;;;12.27;70.63
64158;BME280;50449;51.528;5.076;2024-02-04T00:08:51;102338.34;;;12.25;70.89
64158;BME280;50449;51.528;5.076;2024-02-04T00:11:17;102332.94;;;12.25;70.83
64158;BME280;50449;51.528;5.076;2024-02-04T00:13:42;102323.97;;;12.25;71.04
64158;BME280;50449;51.528;5.076;2024-02-04T00:16:08;102333.94;;;12.24;70.76
64158;BME280;50449;51.528;5.076;2024-02-04T00:18:33;102333.34;;;12.22;70.97
64158;BME280;50449;51.528;5.076;2024-02-04T00:20:59;102334.19;;;12.23;71.22
64158;BME280;50449;51.528;5.076;2024-02-04T00:23:24;102341.50;;;12.22;71.18
64158;BME280;50449;51.528;5.076;2024-02-04T00:25:50;102338.78;;;12.22;71.20
64158;BME280;50449;51.528;5.076;2024-02-04T00:28:15;102336.06;;;12.22;71.04
64158;BME280;50449;51.528;5.076;2024-02-04T00:30:40;102337.91;;;12.22;71.24
64158;BME280;50449;51.528;5.076;2024-02-04T00:33:06;102339.81;;;12.21;71.06
64158;BME280;50449;51.528;5.076;2024-02-04T00:35:31;102337.09;;;12.21;71.47
64158;BME280;50449;51.528;5.076;2024-02-04T00:37:57;102338.16;;;12.20;71.19
64158;BME280;50449;51.528;5.076;2024-02-04T00:40:23;102338.16;;;12.20;71.45
64158;BME280;50449;51.528;5.076;2024-02-04T00:42:48;102336.47;;;12.19;71.31
64158;BME280;50449;51.528;5.076;2024-02-04T00:45:14;102338.97;;;12.21;71.09
64158;BME280;50449;51.528;5.076;2024-02-04T00:47:39;102340.03;;;12.20;71.19
64158;BME280;50449;51.528;5.076;2024-02-04T00:50:05;102347.94;;;12.21;71.24
64158;BME280;50449;51.528;5.076;2024-02-04T00:52:31;102346.28;;;12.20;71.16
64158;BME280;50449;51.528;5.076;2024-02-04T00:54:56;102345.22;;;12.21;71.33
64158;BME280;50449;51.528;5.076;2024-02-04T00:57:21;102353.97;;;12.23;71.05
64158;BME280;50449;51.528;5.076;2024-02-04T00:59:47;102351.06;;;12.25;71.15
64158;BME280;50449;51.528;5.076;2024-02-04T01:02:12;102345.03;;;12.23;71.53
64158;BME280;50449;51.528;5.076;2024-02-04T01:04:38;102348.34;;;12.25;71.19
64158;BME280;50449;51.528;5.076;2024-02-04T01:07:04;102335.63;;;12.25;70.99
64158;BME280;50449;51.528;5.076;2024-02-04T01:09:29;102324.78;;;12.25;71.06
64158;BME280;50449;51.528;5.076;2024-02-04T01:11:54;102322.72;;;12.27;71.04
64158;BME280;50449;51.528;5.076;2024-02-04T01:14:20;102312.06;;;12.26;70.97
64158;BME280;50449;51.528;5.076;2024-02-04T01:16:45;102311.25;;;12.25;71.38
64158;BME280;50449;51.528;5.076;2024-02-04T01:19:11;102307.72;;;12.25;71.19
64158;BME280;50449;51.528;5.076;2024-02-04T01:21:36;102307.91;;;12.23;71.23
64158;BME280;50449;51.528;5.076;2024-02-04T01:24:01;102307.91;;;12.23;71.00
64158;BME280;50449;51.528;5.076;2024-02-04T01:26:27;102310.63;;;12.23;71.17
64158;BME280;50449;51.528;5.076;2024-02-04T01:28:53;102305.22;;;12.23;71.24
64158;BME280;50449;51.528;5.076;2024-02-04T01:31:18;102302.69;;;12.22;71.26
64158;BME280;50449;51.528;5.076;2024-02-04T01:33:44;102311.69;;;12.22;71.13
64158;BME280;50449;51.528;5.076;2024-02-04T01:36:09;102317.94;;;12.23;71.52
64158;BME280;50449;51.528;5.076;2024-02-04T01:38:35;102315.22;;;12.23;71.12
64158;BME280;50449;51.528;5.076;2024-02-04T01:41:00;102318.97;;;12.22;71.15
64158;BME280;50449;51.528;5.076;2024-02-04T01:43:25;102328.53;;;12.24;71.07
64158;BME280;50449;51.528;5.076;2024-02-04T01:45:51;102331.25;;;12.24;71.03
64158;BME280;50449;51.528;5.076;2024-02-04T01:48:20;102332.31;;;12.23;70.93
64158;BME280;50449;51.528;5.076;2024-02-04T01:50:47;102323.34;;;12.23;71.33
64158;BME280;50449;51.528;5.076;2024-02-04T01:53:14;102326.06;;;12.23;71.03
64158;BME280;50449;51.528;5.076;2024-02-04T01:55:40;102328.78;;;12.23;71.39
64158;BME280;50449;51.528;5.076;2024-02-04T01:58:06;102320.63;;;12.23;71.05
64158;BME280;50449;51.528;5.076;2024-02-04T02:00:32;102324.19;;;12.23;71.28
64158;BME280;50449;51.528;5.076;2024-02-04T02:02:59;102331.47;;;12.23;71.07
64158;BME280;50449;51.528;5.076;2024-02-04T02:05:25;102325.22;;;12.22;71.25
64158;BME280;50449;51.528;5.076;2024-02-04T02:07:51;102321.66;;;12.22;71.11
64158;BME280;50449;51.528;5.076;2024-02-04T02:10:18;102323.56;;;12.21;71.26
64158;BME280;50449;51.528;5.076;2024-02-04T02:12:50;102318.56;;;12.18;71.51
64158;BME280;50449;51.528;5.076;2024-02-04T02:15:22;102319.41;;;12.19;71.45
64158;BME280;50449;51.528;5.076;2024-02-04T02:17:57;102315.03;;;12.18;71.49
64158;BME280;50449;51.528;5.076;2024-02-04T02:20:24;102325.63;;;12.19;71.62
64158;BME280;50449;51.528;5.076;2024-02-04T02:23:07;102324.63;;;12.20;71.63
64158;BME280;50449;51.528;5.076;2024-02-04T02:25:36;102333.56;;;12.21;71.21
64158;BME280;50449;51.528;5.076;2024-02-04T02:28:03;102325.44;;;12.21;71.31
64158;BME280;50449;51.528;5.076;2024-02-04T02:30:29;102328.97;;;12.21;71.24
64158;BME280;50449;51.528;5.076;2024-02-04T02:32:54;102328.16;;;12.21;71.43
64158;BME280;50449;51.528;5.076;2024-02-04T02:35:20;102332.75;;;12.20;71.12
64158;BME280;50449;51.528;5.076;2024-02-04T02:38:07;102322.94;;;12.19;71.24
64158;BME280;50449;51.528;5.076;2024-02-04T02:40:46;102314.81;;;12.19;71.37
64158;BME280;50449;51.528;5.076;2024-02-04T02:43:13;102314.81;;;12.19;70.87
64158;BME280;50449;51.528;5.076;2024-02-04T02:45:41;102322.72;;;12.21;70.92
64158;BME280;50449;51.528;5.076;2024-02-04T02:48:07;102323.78;;;12.20;71.02
64158;BME280;50449;51.528;5.076;2024-02-04T02:50:35;102304.81;;;12.20;71.34
64158;BME280;50449;51.528;5.076;2024-02-04T02:53:00;102302.94;;;12.20;71.22
64158;BME280;50449;51.528;5.076;2024-02-04T02:55:26;102309.38;;;12.19;71.09
64158;BME280;50449;51.528;5.076;2024-02-04T02:57:51;102317.31;;;12.21;71.17
64158;BME280;50449;51.528;5.076;2024-02-04T03:00:17;102319.19;;;12.20;71.01
64158;BME280;50449;51.528;5.076;2024-02-04T03:02:42;102321.66;;;12.22;71.16
64158;BME280;50449;51.528;5.076;2024-02-04T03:05:08;102310.00;;;12.21;70.93
64158;BME280;50449;51.528;5.076;2024-02-04T03:07:33;102310.00;;;12.21;71.16
64158;BME280;50449;51.528;5.076;2024-02-04T03:09:59;102303.97;;;12.19;70.94
64158;BME280;50449;51.528;5.076;2024-02-04T03:12:24;102317.50;;;12.19;71.19
64158;BME280;50449;51.528;5.076;2024-02-04T03:14:49;102313.78;;;12.20;70.91
64158;BME280;50449;51.528;5.076;2024-02-04T03:17:15;102324.19;;;12.17;71.27
64158;BME280;50449;51.528;5.076;2024-02-04T03:19:45;102320.66;;;12.16;70.89
64158;BME280;50449;51.528;5.076;2024-02-04T03:22:12;102315.25;;;12.16;70.97
64158;BME280;50449;51.528;5.076;2024-02-04T03:24:37;102321.47;;;12.17;71.27
64158;BME280;50449;51.528;5.076;2024-02-04T03:27:03;102317.13;;;12.16;70.90
64158;BME280;50449;51.528;5.076;2024-02-04T03:29:28;102309.00;;;12.16;71.08
64158;BME280;50449;51.528;5.076;2024-02-04T03:31:55;102300.66;;;12.17;71.28
64158;BME280;50449;51.528;5.076;2024-02-04T03:34:21;102302.53;;;12.17;71.12
64158;BME280;50449;51.528;5.076;2024-02-04T03:36:47;102308.78;;;12.17;70.91
64158;BME280;50449;51.528;5.076;2024-02-04T03:39:12;102301.50;;;12.18;71.03
64158;BME280;50449;51.528;5.076;2024-02-04T03:41:37;102310.25;;;12.20;71.16
64158;BME280;50449;51.528;5.076;2024-02-04T03:44:03;102301.25;;;12.19;71.14
64158;BME280;50449;51.528;5.076;2024-02-04T03:46:28;102301.50;;;12.18;71.13
64158;BME280;50449;51.528;5.076;2024-02-04T03:48:54;102291.69;;;12.17;71.22
64158;BME280;50449;51.528;5.076;2024-02-04T03:51:19;102299.81;;;12.17;71.19
64158;BME280;50449;51.528;5.076;2024-02-04T03:53:45;102296.06;;;12.18;71.09
64158;BME280;50449;51.528;5.076;2024-02-04T03:56:10;102298.97;;;12.16;71.17
64158;BME280;50449;51.528;5.076;2024-02-04T03:58:36;102296.06;;;12.18;70.88
64158;BME280;50449;51.528;5.076;2024-02-04T04:01:01;102300.44;;;12.19;70.94
64158;BME280;50449;51.528;5.076;2024-02-04T04:03:27;102312.09;;;12.19;71.17
64158;BME280;50449;51.528;5.076;2024-02-04T04:05:55;102303.13;;;12.19;71.00
64158;BME280;50449;51.528;5.076;2024-02-04T04:08:21;102300.44;;;12.19;70.79
64158;BME280;50449;51.528;5.076;2024-02-04T04:10:46;102302.13;;;12.20;70.77
64158;BME280;50449;51.528;5.076;2024-02-04T04:13:12;102302.94;;;12.20;71.18
64158;BME280;50449;51.528;5.076;2024-02-04T04:15:38;102292.94;;;12.21;70.81
64158;BME280;50449;51.528;5.076;2024-02-04T04:18:04;102295.63;;;12.21;70.94
64158;BME280;50449;51.528;5.076;2024-02-04T04:20:30;102300.00;;;12.22;70.70
64158;BME280;50449;51.528;5.076;2024-02-04T04:22:55;102302.69;;;12.22;70.91
64158;BME280;50449;51.528;5.076;2024-02-04T04:25:20;102284.81;;;12.21;71.04
64158;BME280;50449;51.528;5.076;2024-02-04T04:27:46;102282.28;;;12.19;70.75
64158;BME280;50449;51.528;5.076;2024-02-04T04:30:11;102293.13;;;12.19;70.70
64158;BME280;50449;51.528;5.076;2024-02-04T04:32:37;102282.09;;;12.21;70.81
64158;BME280;50449;51.528;5.076;2024-02-04T04:35:03;102282.09;;;12.21;70.81
64158;BME280;50449;51.528;5.076;2024-02-04T04:37:28;102260.63;;;12.19;70.78
64158;BME280;50449;51.528;5.076;2024-02-04T04:39:53;102253.56;;;12.18;70.84
64158;BME280;50449;51.528;5.076;2024-02-04T04:42:19;102243.97;;;12.16;71.24
64158;BME280;50449;51.528;5.076;2024-02-04T04:44:44;102243.16;;;12.15;71.08
64158;BME280;50449;51.528;5.076;2024-02-04T04:47:09;102238.78;;;12.14;71.06
64158;BME280;50449;51.528;5.076;2024-02-04T04:49:35;102232.53;;;12.13;71.17
64158;BME280;50449;51.528;5.076;2024-02-04T04:52:00;102234.22;;;12.15;71.19
64158;BME280;50449;51.528;5.076;2024-02-04T04:54:27;102246.69;;;12.16;71.25
64158;BME280;50449;51.528;5.076;2024-02-04T04:56:53;102249.41;;;12.16;71.16
64158;BME280;50449;51.528;5.076;2024-02-04T04:59:18;102242.34;;;12.15;71.21
64158;BME280;50449;51.528;5.076;2024-02-04T05:01:50;102247.97;;;12.13;71.42
64158;BME280;50449;51.528;5.076;2024-02-04T05:04:16;102253.56;;;12.11;71.25
64158;BME280;50449;51.528;5.076;2024-02-04T05:06:44;102239.22;;;12.11;71.07
64158;BME280;50449;51.528;5.076;2024-02-04T05:09:09;102249.22;;;12.10;71.31
64158;BME280;50449;51.528;5.076;2024-02-04T05:11:34;102247.34;;;12.11;71.06
64158;BME280;50449;51.528;5.076;2024-02-04T05:14:00;102251.72;;;12.12;71.19
64158;BME280;50449;51.528;5.076;2024-02-04T05:16:25;102251.94;;;12.10;71.21
64158;BME280;50449;51.528;5.076;2024-02-04T05:18:51;102246.94;;;12.07;71.24
64158;BME280;50449;51.528;5.076;2024-02-04T05:21:16;102253.81;;;12.10;71.36
64158;BME280;50449;51.528;5.076;2024-02-04T05:23:42;102251.09;;;12.10;71.17
64158;BME280;50449;51.528;5.076;2024-02-04T05:26:07;102246.31;;;12.12;71.22
64158;BME280;50449;51.528;5.076;2024-02-04T05:28:33;102250.88;;;12.11;71.09
64158;BME280;50449;51.528;5.076;2024-02-04T05:30:58;102257.13;;;12.12;71.31
64158;BME280;50449;51.528;5.076;2024-02-04T05:33:24;102267.97;;;12.12;70.97
64158;BME280;50449;51.528;5.076;2024-02-04T05:35:49;102256.72;;;12.08;71.10
64158;BME280;50449;51.528;5.076;2024-02-04T05:38:16;102254.22;;;12.07;70.96
64158;BME280;50449;51.528;5.076;2024-02-04T05:40:41;102247.97;;;12.06;71.02
64158;BME280;50449;51.528;5.076;2024-02-04T05:43:07;102254.22;;;12.07;71.39
64158;BME280;50449;51.528;5.076;2024-02-04T05:45:38;102246.94;;;12.07;71.03
64158;BME280;50449;51.528;5.076;2024-02-04T05:48:07;102249.66;;;12.07;71.41
64158;BME280;50449;51.528;5.076;2024-02-04T05:50:32;102246.94;;;12.07;71.16
64158;BME280;50449;51.528;5.076;2024-02-04T05:52:57;102236.13;;;12.07;71.09
64158;BME280;50449;51.528;5.076;2024-02-04T05:55:23;102240.47;;;12.08;70.99
64158;BME280;50449;51.528;5.076;2024-02-04T05:57:48;102233.16;;;12.09;71.33
64158;BME280;50449;51.528;5.076;2024-02-04T06:00:14;102232.34;;;12.08;71.15
64158;BME280;50449;51.528;5.076;2024-02-04T06:02:39;102228.81;;;12.08;71.24
64158;BME280;50449;51.528;5.076;2024-02-04T06:05:05;102224.84;;;12.10;71.35
64158;BME280;50449;51.528;5.076;2024-02-04T06:07:30;102232.13;;;12.10;71.07
64158;BME280;50449;51.528;5.076;2024-02-04T06:09:56;102232.13;;;12.10;71.29
64158;BME280;50449;51.528;5.076;2024-02-04T06:12:22;102232.97;;;12.10;71.15
64158;BME280;50449;51.528;5.076;2024-02-04T06:14:47;102233.78;;;12.11;71.17
64158;BME280;50449;51.528;5.076;2024-02-04T06:17:12;102222.97;;;12.11;71.14
64158;BME280;50449;51.528;5.076;2024-02-04T06:19:38;102217.53;;;12.11;71.14
64158;BME280;50449;51.528;5.076;2024-02-04T06:22:03;102214.84;;;12.11;71.25
64158;BME280;50449;51.528;5.076;2024-02-04T06:24:29;102207.97;;;12.08;71.17
64158;BME280;50449;51.528;5.076;2024-02-04T06:26:54;102219.63;;;12.09;71.45
64158;BME280;50449;51.528;5.076;2024-02-04T06:29:19;102212.13;;;12.11;71.20
64158;BME280;50449;51.528;5.076;2024-02-04T06:31:46;102218.38;;;12.11;70.88
64158;BME280;50449;51.528;5.076;2024-02-04T06:34:12;102220.25;;;12.11;71.15
64158;BME280;50449;51.528;5.076;2024-02-04T06:36:37;102213.19;;;12.10;70.96
64158;BME280;50449;51.528;5.076;2024-02-04T06:39:03;102210.69;;;12.08;71.36
64158;BME280;50449;51.528;5.076;2024-02-04T06:41:28;102215.03;;;12.09;71.21
64158;BME280;50449;51.528;5.076;2024-02-04T06:43:54;102214.22;;;12.09;71.14
64158;BME280;50449;51.528;5.076;2024-02-04T06:46:28;102207.97;;;12.08;71.25
64158;BME280;50449;51.528;5.076;2024-02-04T06:48:54;102196.50;;;12.06;71.31
64158;BME280;50449;51.528;5.076;2024-02-04T06:51:20;102206.91;;;12.09;71.23
64158;BME280;50449;51.528;5.076;2024-02-04T06:53:45;102203.16;;;12.10;71.28
64158;BME280;50449;51.528;5.076;2024-02-04T06:56:11;102204.19;;;12.09;71.11
64158;BME280;50449;51.528;5.076;2024-02-04T06:58:43;102212.75;;;12.06;71.34
64158;BME280;50449;51.528;5.076;2024-02-04T07:01:08;102208.41;;;12.05;71.17
64158;BME280;50449;51.528;5.076;2024-02-04T07:03:34;102203.81;;;12.06;71.39
64158;BME280;50449;51.528;5.076;2024-02-04T07:06:00;102212.75;;;12.06;71.21
64158;BME280;50449;51.528;5.076;2024-02-04T07:08:26;102212.75;;;12.06;71.08
64158;BME280;50449;51.528;5.076;2024-02-04T07:10:51;102221.94;;;12.05;71.14
64158;BME280;50449;51.528;5.076;2024-02-04T07:13:17;102214.03;;;12.04;71.40
64158;BME280;50449;51.528;5.076;2024-02-04T07:15:43;102210.50;;;12.03;71.41
64158;BME280;50449;51.528;5.076;2024-02-04T07:18:08;102210.28;;;12.05;71.52
64158;BME280;50449;51.528;5.076;2024-02-04T07:20:34;102220.91;;;12.06;71.38
64158;BME280;50449;51.528;5.076;2024-02-04T07:22:59;102214.44;;;12.07;71.17
64158;BME280;50449;51.528;5.076;2024-02-04T07:25:24;102207.16;;;12.08;71.15
64158;BME280;50449;51.528;5.076;2024-02-04T07:27:50;102211.94;;;12.06;71.24
64158;BME280;50449;51.528;5.076;2024-02-04T07:30:16;102202.38;;;12.03;71.60
64158;BME280;50449;51.528;5.076;2024-02-04T07:32:41;102204.25;;;12.03;70.91
64158;BME280;50449;51.528;5.076;2024-02-04T07:35:07;102206.72;;;12.04;71.52
64158;BME280;50449;51.528;5.076;2024-02-04T07:37:34;102202.16;;;12.05;71.49
64158;BME280;50449;51.528;5.076;2024-02-04T07:40:00;102203.00;;;12.05;71.28
64158;BME280;50449;51.528;5.076;2024-02-04T07:42:26;102191.34;;;12.05;71.29
64158;BME280;50449;51.528;5.076;2024-02-04T07:44:52;102192.16;;;12.05;71.28
64158;BME280;50449;51.528;5.076;2024-02-04T07:47:17;102211.13;;;12.05;71.63
64158;BME280;50449;51.528;5.076;2024-02-04T07:49:44;102198.59;;;12.04;71.44
64158;BME280;50449;51.528;5.076;2024-02-04T07:52:10;102213.22;;;12.03;71.58
64158;BME280;50449;51.528;5.076;2024-02-04T07:54:35;102203.19;;;12.04;71.51
64158;BME280;50449;51.528;5.076;2024-02-04T07:57:00;102205.28;;;12.02;71.35
64158;BME280;50449;51.528;5.076;2024-02-04T07:59:26;102202.38;;;12.03;71.44
64158;BME280;50449;51.528;5.076;2024-02-04T08:01:51;102199.66;;;12.03;71.33
64158;BME280;50449;51.528;5.076;2024-02-04T08:04:17;102199.47;;;12.05;71.63
64158;BME280;50449;51.528;5.076;2024-02-04T08:06:42;102186.75;;;12.05;71.51
64158;BME280;50449;51.528;5.076;2024-02-04T08:09:07;102198.59;;;12.04;71.60
64158;BME280;50449;51.528;5.076;2024-02-04T08:11:33;102189.03;;;12.02;71.47
64158;BME280;50449;51.528;5.076;2024-02-04T08:13:59;102191.53;;;12.03;71.54
64158;BME280;50449;51.528;5.076;2024-02-04T08:16:25;102179.88;;;12.03;71.26
64158;BME280;50449;51.528;5.076;2024-02-04T08:18:50;102177.19;;;12.03;71.65
64158;BME280;50449;51.528;5.076;2024-02-04T08:21:16;102183.41;;;12.03;71.50
64158;BME280;50449;51.528;5.076;2024-02-04T08:23:41;102179.66;;;12.04;71.29
64158;BME280;50449;51.528;5.076;2024-02-04T08:26:07;102189.44;;;12.05;71.57
64158;BME280;50449;51.528;5.076;2024-02-04T08:28:33;102181.53;;;12.04;71.44
64158;BME280;50449;51.528;5.076;2024-02-04T08:30:59;102186.13;;;12.03;71.37
64158;BME280;50449;51.528;5.076;2024-02-04T08:33:24;102203.19;;;12.04;71.25
64158;BME280;50449;51.528;5.076;2024-02-04T08:35:50;102205.69;;;12.05;71.63
64158;BME280;50449;51.528;5.076;2024-02-04T08:38:15;102214.84;;;12.04;71.42
64158;BME280;50449;51.528;5.076;2024-02-04T08:40:41;102209.69;;;12.03;71.74
64158;BME280;50449;51.528;5.076;2024-02-04T08:43:06;102212.59;;;12.01;71.52
64158;BME280;50449;51.528;5.076;2024-02-04T08:45:31;102225.94;;;12.03;71.56
64158;BME280;50449;51.528;5.076;2024-02-04T08:47:57;102216.75;;;12.04;71.28
64158;BME280;50449;51.528;5.076;2024-02-04T08:50:22;102216.75;;;12.04;71.57
64158;BME280;50449;51.528;5.076;2024-02-04T08:52:48;102211.94;;;12.06;71.47
64158;BME280;50449;51.528;5.076;2024-02-04T08:55:13;102219.00;;;12.07;71.22
64158;BME280;50449;51.528;5.076;2024-02-04T08:57:39;102219.00;;;12.07;71.50
64158;BME280;50449;51.528;5.076;2024-02-04T09:00:05;102213.59;;;12.07;71.71
64158;BME280;50449;51.528;5.076;2024-02-04T09:02:34;102215.28;;;12.08;71.71
64158;BME280;50449;51.528;5.076;2024-02-04T09:05:00;102217.97;;;12.08;71.28
64158;BME280;50449;51.528;5.076;2024-02-04T09:07:25;102214.22;;;12.09;71.71
64158;BME280;50449;51.528;5.076;2024-02-04T09:09:50;102227.56;;;12.10;71.56
64158;BME280;50449;51.528;5.076;2024-02-04T09:12:16;102222.13;;;12.10;71.49
64158;BME280;50449;51.528;5.076;2024-02-04T09:14:42;102221.06;;;12.11;71.70
64158;BME280;50449;51.528;5.076;2024-02-04T09:17:07;102218.59;;;12.10;71.45
64158;BME280;50449;51.528;5.076;2024-02-04T09:19:33;102211.09;;;12.12;71.32
64158;BME280;50449;51.528;5.076;2024-02-04T09:21:59;102203.34;;;12.16;71.51
64158;BME280;50449;51.528;5.076;2024-02-04T09:24:27;102209.81;;;12.15;71.40
64158;BME280;50449;51.528;5.076;2024-02-04T09:26:52;102203.34;;;12.16;71.09
64158;BME280;50449;51.528;5.076;2024-02-04T09:29:18;102205.22;;;12.15;71.58
64158;BME280;50449;51.528;5.076;2024-02-04T09:31:43;102199.00;;;12.15;71.29
64158;BME280;50449;51.528;5.076;2024-02-04T09:34:09;102194.59;;;12.13;71.66
64158;BME280;50449;51.528;5.076;2024-02-04T09:36:34;102200.84;;;12.14;71.18
64158;BME280;50449;51.528;5.076;2024-02-04T09:38:59;102188.16;;;12.15;71.46
64158;BME280;50449;51.528;5.076;2024-02-04T09:41:25;102194.41;;;12.15;71.54
64158;BME280;50449;51.528;5.076;2024-02-04T09:43:52;102185.44;;;12.15;71.16
64158;BME280;50449;51.528;5.076;2024-02-04T09:46:18;102184.59;;;12.14;71.67
64158;BME280;50449;51.528;5.076;2024-02-04T09:48:45;102189.81;;;12.16;71.54
64158;BME280;50449;51.528;5.076;2024-02-04T09:51:10;102192.50;;;12.16;71.62
64158;BME280;50449;51.528;5.076;2024-02-04T09:53:43;102188.97;;;12.15;71.32
64158;BME280;50449;51.528;5.076;2024-02-04T09:56:09;102193.56;;;12.15;71.46
64158;BME280;50449;51.528;5.076;2024-02-04T09:58:36;102205.00;;;12.17;71.61
64158;BME280;50449;51.528;5.076;2024-02-04T10:01:03;102205.00;;;12.17;71.62
64158;BME280;50449;51.528;5.076;2024-02-04T10:03:29;102197.94;;;12.16;71.50
64158;BME280;50449;51.528;5.076;2024-02-04T10:05:55;102207.72;;;12.17;71.37
64158;BME280;50449;51.528;5.076;2024-02-04T10:08:20;102210.41;;;12.17;71.59
64158;BME280;50449;51.528;5.076;2024-02-04T10:10:46;102214.19;;;12.16;71.36
64158;BME280;50449;51.528;5.076;2024-02-04T10:13:12;102198.75;;;12.16;71.44
64158;BME280;50449;51.528;5.076;2024-02-04T10:15:38;102196.03;;;12.16;71.61
64158;BME280;50449;51.528;5.076;2024-02-04T10:18:07;102187.91;;;12.16;71.57
64158;BME280;50449;51.528;5.076;2024-02-04T10:20:33;102185.44;;;12.15;71.41
64158;BME280;50449;51.528;5.076;2024-02-04T10:22:58;102192.50;;;12.16;71.45
64158;BME280;50449;51.528;5.076;2024-02-04T10:25:24;102186.03;;;12.17;71.61
64158;BME280;50449;51.528;5.076;2024-02-04T10:27:49;102194.78;;;12.19;71.42
64158;BME280;50449;51.528;5.076;2024-02-04T10:30:15;102198.56;;;12.18;71.69
64158;BME280;50449;51.528;5.076;2024-02-04T10:32:43;102193.97;;;12.18;71.52
64158;BME280;50449;51.528;5.076;2024-02-04T10:35:10;102192.31;;;12.17;71.59
64158;BME280;50449;51.528;5.076;2024-02-04T10:37:35;102196.66;;;12.18;71.78
64158;BME280;50449;51.528;5.076;2024-02-04T10:40:00;102200.44;;;12.17;71.82
64158;BME280;50449;51.528;5.076;2024-02-04T10:42:27;102199.81;;;12.15;71.78
64158;BME280;50449;51.528;5.076;2024-02-04T10:44:54;102202.53;;;12.15;71.75
64158;BME280;50449;51.528;5.076;2024-02-04T10:47:23;102205.84;;;12.17;71.76
64158;BME280;50449;51.528;5.076;2024-02-04T10:49:52;102195.22;;;12.16;71.61
64158;BME280;50449;51.528;5.076;2024-02-04T10:52:22;102199.00;;;12.15;71.86
64158;BME280;50449;51.528;5.076;2024-02-04T10:54:49;102200.44;;;12.17;71.71
64158;BME280;50449;51.528;5.076;2024-02-04T10:57:20;102190.19;;;12.19;71.81
64158;BME280;50449;51.528;5.076;2024-02-04T10:59:47;102186.66;;;12.19;71.66
64158;BME280;50449;51.528;5.076;2024-02-04T11:02:15;102191.03;;;12.20;71.88
64158;BME280;50449;51.528;5.076;2024-02-04T11:04:42;102198.94;;;12.21;71.57
64158;BME280;50449;51.528;5.076;2024-02-04T11:07:10;102196.22;;;12.21;71.51
64158;BME280;50449;51.528;5.076;2024-02-04T11:09:39;102195.19;;;12.22;71.60
64158;BME280;50449;51.528;5.076;2024-02-04T11:12:09;102189.78;;;12.22;71.58
64158;BME280;50449;51.528;5.076;2024-02-04T11:14:36;102181.41;;;12.24;71.46
64158;BME280;50449;51.528;5.076;2024-02-04T11:20:28;102165.16;;;12.24;71.78
64158;BME280;50449;51.528;5.076;2024-02-04T11:28:15;102167.66;;;12.25;71.63
64158;BME280;50449;51.528;5.076;2024-02-04T11:30:43;102161.41;;;12.25;71.53
64158;BME280;50449;51.528;5.076;2024-02-04T11:33:10;102160.34;;;12.26;71.66
64158;BME280;50449;51.528;5.076;2024-02-04T11:35:36;102158.47;;;12.26;71.95
64158;BME280;50449;51.528;5.076;2024-02-04T11:38:03;102155.75;;;12.26;71.96
64158;BME280;50449;51.528;5.076;2024-02-04T11:40:36;102165.78;;;12.26;71.66
64158;BME280;50449;51.528;5.076;2024-02-04T11:43:11;102163.06;;;12.26;71.67
64158;BME280;50449;51.528;5.076;2024-02-04T11:45:41;102154.13;;;12.25;71.73
64158;BME280;50449;51.528;5.076;2024-02-04T11:48:08;102158.47;;;12.26;71.74
64158;BME280;50449;51.528;5.076;2024-02-04T11:50:35;102162.00;;;12.27;71.62
64158;BME280;50449;51.528;5.076;2024-02-04T11:53:11;102150.97;;;12.28;71.78
64158;BME280;50449;51.528;5.076;2024-02-04T11:55:39;102136.34;;;12.29;71.69
64158;BME280;50449;51.528;5.076;2024-02-04T11:58:05;102138.25;;;12.29;71.90
64158;BME280;50449;51.528;5.076;2024-02-04T12:00:32;102143.22;;;12.32;71.82
64158;BME280;50449;51.528;5.076;2024-02-04T12:03:03;102140.91;;;12.36;71.40
64158;BME280;50449;51.528;5.076;2024-02-04T12:05:34;102142.78;;;12.35;71.43
64158;BME280;50449;51.528;5.076;2024-02-04T12:08:04;102141.13;;;12.34;71.46
64158;BME280;50449;51.528;5.076;2024-02-04T12:10:30;102149.03;;;12.36;71.88
64158;BME280;50449;51.528;5.076;2024-02-04T12:12:58;102135.50;;;12.36;71.87
64158;BME280;50449;51.528;5.076;2024-02-04T12:15:25;102137.13;;;12.37;71.53
64158;BME280;50449;51.528;5.076;2024-02-04T12:17:50;102140.47;;;12.39;71.54
64158;BME280;50449;51.528;5.076;2024-02-04T12:20:16;102137.97;;;12.37;71.44
64158;BME280;50449;51.528;5.076;2024-02-04T12:22:42;102136.09;;;12.38;71.46
64158;BME280;50449;51.528;5.076;2024-02-04T12:25:08;102140.47;;;12.39;71.87
64158;BME280;50449;51.528;5.076;2024-02-04T12:27:34;102132.13;;;12.40;71.68
64158;BME280;50449;51.528;5.076;2024-02-04T12:29:59;102130.22;;;12.41;71.71
64158;BME280;50449;51.528;5.076;2024-02-04T12:32:25;102140.00;;;12.42;71.40
64158;BME280;50449;51.528;5.076;2024-02-04T12:34:51;102122.94;;;12.41;71.58
64158;BME280;50449;51.528;5.076;2024-02-04T12:37:19;102125.84;;;12.40;71.44
64158;BME280;50449;51.528;5.076;2024-02-04T12:39:45;102122.31;;;12.39;71.45
64158;BME280;50449;51.528;5.076;2024-02-04T12:42:10;102116.91;;;12.39;71.45
64158;BME280;50449;51.528;5.076;2024-02-04T12:44:43;102110.19;;;12.42;71.69
64158;BME280;50449;51.528;5.076;2024-02-04T12:47:09;102107.50;;;12.42;71.89
64158;BME280;50449;51.528;5.076;2024-02-04T12:49:34;102099.97;;;12.44;71.54
64158;BME280;50449;51.528;5.076;2024-02-04T12:52:07;102116.25;;;12.44;71.78
64158;BME280;50449;51.528;5.076;2024-02-04T12:54:43;102118.94;;;12.44;71.48